JTC427 KSAV-KOQU
Flight info
| Callsign | JTC427 |
|---|---|
| Flight time | 1h 43m |
| Altitude | 41000 |
| Route | JROSS Q409 CRPLR ZJAAY ORCHA JORDN MINNK |
| Aircraft | CL60/M-SBDE1E2E3FGHIJ4J5J7M3RWXYZ/LB1V1D1 |
Departure
| Time | 2026-04-30 17:52 |
|---|---|
| Airport | Savannah Hilton Head International Airport (KSAV) |
Arrival
| Time | 2026-04-30 19:36 |
|---|---|
| Airport | Quonset State Airport (KOQU) |
| Time | Latitude | Longitude | Altitude | Speed | Heading |
|---|---|---|---|---|---|
| 2026-04-30 17:39 | 32.12575 | -81.20631 | 28 ft | 0 kts | 2° |
| 2026-04-30 17:46 | 32.12594 | -81.20592 | 29 ft | 0 kts | 110° |
| 2026-04-30 17:47 | 32.12493 | -81.20367 | 32 ft | 1 kts | 85° |
| 2026-04-30 17:48 | 32.12709 | -81.20325 | 34 ft | 17 kts | 333° |
| 2026-04-30 17:48 | 32.12750 | -81.20100 | 40 ft | 12 kts | 91° |
| 2026-04-30 17:49 | 32.12662 | -81.19722 | 46 ft | 9 kts | 77° |
| 2026-04-30 17:50 | 32.12703 | -81.19205 | 47 ft | 7 kts | 93° |
| 2026-04-30 17:51 | 32.12795 | -81.18877 | 45 ft | 19 kts | 359° |
| 2026-04-30 17:52 | 32.12899 | -81.21564 | 776 ft | 190 kts | 271° |
| 2026-04-30 17:53 | 32.12806 | -81.29836 | 7200 ft | 211 kts | 290° |
| 2026-04-30 17:54 | 32.19041 | -81.29999 | 10870 ft | 341 kts | 33° |
| 2026-04-30 17:55 | 32.27036 | -81.22169 | 14569 ft | 392 kts | 34° |
| 2026-04-30 17:56 | 32.33098 | -81.10810 | 18280 ft | 433 kts | 58° |
| 2026-04-30 17:57 | 32.37191 | -81.01047 | 20564 ft | 454 kts | 58° |
| 2026-04-30 17:58 | 32.41682 | -80.90925 | 22533 ft | 474 kts | 56° |
| 2026-04-30 17:59 | 32.51154 | -80.80627 | 25160 ft | 469 kts | 29° |
| 2026-04-30 18:00 | 32.61730 | -80.71143 | 27566 ft | 482 kts | 28° |
| 2026-04-30 18:00 | 32.69894 | -80.63796 | 28949 ft | 494 kts | 28° |
| 2026-04-30 18:01 | 32.75373 | -80.58846 | 30052 ft | 494 kts | 27° |
| 2026-04-30 18:02 | 32.83534 | -80.51446 | 32021 ft | 484 kts | 26° |
| 2026-04-30 18:02 | 32.91420 | -80.44276 | 34025 ft | 470 kts | 25° |
| 2026-04-30 18:03 | 32.99172 | -80.37223 | 35668 ft | 464 kts | 25° |
| 2026-04-30 18:04 | 33.06815 | -80.30251 | 37217 ft | 455 kts | 25° |
| 2026-04-30 18:05 | 33.16786 | -80.21133 | 38888 ft | 447 kts | 24° |
| 2026-04-30 18:06 | 33.26659 | -80.12086 | 39880 ft | 447 kts | 24° |
| 2026-04-30 18:07 | 33.36517 | -80.03024 | 40703 ft | 446 kts | 25° |
| 2026-04-30 18:08 | 33.43985 | -79.96146 | 40894 ft | 454 kts | 24° |
| 2026-04-30 18:09 | 33.54136 | -79.86771 | 40888 ft | 467 kts | 25° |
| 2026-04-30 18:10 | 33.64498 | -79.77162 | 40887 ft | 474 kts | 25° |
| 2026-04-30 18:11 | 33.82865 | -79.60041 | 40885 ft | 478 kts | 25° |
| 2026-04-30 18:13 | 33.95984 | -79.47398 | 40882 ft | 484 kts | 26° |
| 2026-04-30 18:14 | 34.09076 | -79.34559 | 40898 ft | 487 kts | 26° |
| 2026-04-30 18:15 | 34.24929 | -79.18945 | 40902 ft | 489 kts | 27° |
| 2026-04-30 18:16 | 34.35900 | -79.09366 | 40893 ft | 485 kts | 23° |
| 2026-04-30 18:17 | 34.41414 | -79.04644 | 40880 ft | 485 kts | 23° |
| 2026-04-30 18:18 | 34.49553 | -78.97322 | 40903 ft | 487 kts | 26° |
| 2026-04-30 18:18 | 34.54947 | -78.92357 | 40904 ft | 489 kts | 25° |
| 2026-04-30 18:19 | 34.60392 | -78.87331 | 40908 ft | 490 kts | 26° |
| 2026-04-30 18:19 | 34.65826 | -78.82307 | 40892 ft | 491 kts | 26° |
| 2026-04-30 18:20 | 34.71238 | -78.77294 | 40891 ft | 491 kts | 26° |
| 2026-04-30 18:20 | 34.76673 | -78.72251 | 40899 ft | 491 kts | 26° |
| 2026-04-30 18:21 | 34.82104 | -78.67205 | 40890 ft | 492 kts | 26° |
| 2026-04-30 18:21 | 34.87561 | -78.62125 | 40898 ft | 492 kts | 26° |
| 2026-04-30 18:22 | 34.92988 | -78.57066 | 40891 ft | 494 kts | 26° |
| 2026-04-30 18:22 | 35.01179 | -78.49410 | 40911 ft | 494 kts | 27° |
| 2026-04-30 18:23 | 35.06626 | -78.44308 | 40894 ft | 495 kts | 27° |
| 2026-04-30 18:23 | 35.12114 | -78.39159 | 40888 ft | 494 kts | 27° |
| 2026-04-30 18:24 | 35.20315 | -78.31448 | 40882 ft | 495 kts | 28° |
| 2026-04-30 18:25 | 35.25784 | -78.26296 | 40881 ft | 495 kts | 28° |
| 2026-04-30 18:25 | 35.33974 | -78.18563 | 40884 ft | 497 kts | 28° |
| 2026-04-30 18:26 | 35.42189 | -78.10786 | 40877 ft | 498 kts | 28° |
| 2026-04-30 18:27 | 35.50426 | -78.02968 | 40888 ft | 498 kts | 28° |
| 2026-04-30 18:28 | 35.58654 | -77.95137 | 40897 ft | 498 kts | 28° |
| 2026-04-30 18:28 | 35.66886 | -77.87281 | 40882 ft | 498 kts | 29° |
| 2026-04-30 18:29 | 35.77830 | -77.76806 | 40882 ft | 498 kts | 29° |
| 2026-04-30 18:30 | 35.88770 | -77.66297 | 40897 ft | 499 kts | 30° |
| 2026-04-30 18:31 | 35.97003 | -77.58363 | 40895 ft | 500 kts | 30° |
| 2026-04-30 18:32 | 36.05250 | -77.50395 | 40849 ft | 503 kts | 30° |
| 2026-04-30 18:33 | 36.13500 | -77.42398 | 40917 ft | 500 kts | 30° |
| 2026-04-30 18:33 | 36.21754 | -77.34377 | 40898 ft | 501 kts | 31° |
| 2026-04-30 18:34 | 36.30027 | -77.26317 | 40880 ft | 502 kts | 31° |
| 2026-04-30 18:35 | 36.35743 | -77.21356 | 40868 ft | 497 kts | 26° |
| 2026-04-30 18:35 | 36.41510 | -77.16625 | 40865 ft | 497 kts | 26° |
| 2026-04-30 18:36 | 36.50213 | -77.09459 | 40854 ft | 498 kts | 26° |
| 2026-04-30 18:37 | 36.58894 | -77.02286 | 40850 ft | 498 kts | 26° |
| 2026-04-30 18:37 | 36.64652 | -76.97515 | 40871 ft | 498 kts | 26° |
| 2026-04-30 18:38 | 36.70416 | -76.92731 | 40869 ft | 498 kts | 26° |
| 2026-04-30 18:38 | 36.76179 | -76.87937 | 40871 ft | 499 kts | 27° |
| 2026-04-30 18:39 | 36.81954 | -76.83124 | 40874 ft | 499 kts | 27° |
| 2026-04-30 18:39 | 36.87728 | -76.78303 | 40864 ft | 499 kts | 27° |
| 2026-04-30 18:40 | 36.93484 | -76.73487 | 40869 ft | 498 kts | 27° |
| 2026-04-30 18:40 | 36.99206 | -76.68691 | 40864 ft | 498 kts | 27° |
| 2026-04-30 18:41 | 37.04982 | -76.63841 | 40868 ft | 498 kts | 27° |
| 2026-04-30 18:41 | 37.10744 | -76.58991 | 40869 ft | 498 kts | 27° |
| 2026-04-30 18:42 | 37.16480 | -76.54157 | 40866 ft | 498 kts | 27° |
| 2026-04-30 18:42 | 37.25066 | -76.46901 | 40863 ft | 498 kts | 27° |
| 2026-04-30 18:45 | 37.56707 | -76.19984 | 40863 ft | 501 kts | 29° |
| 2026-04-30 18:46 | 37.62035 | -76.14214 | 40859 ft | 510 kts | 43° |
| 2026-04-30 18:46 | 37.66527 | -76.07203 | 40862 ft | 513 kts | 49° |
| 2026-04-30 18:47 | 37.70915 | -76.00137 | 40870 ft | 513 kts | 49° |
| 2026-04-30 18:47 | 37.75316 | -75.93036 | 40868 ft | 513 kts | 49° |
| 2026-04-30 18:48 | 37.79711 | -75.85929 | 40864 ft | 514 kts | 48° |
| 2026-04-30 18:48 | 37.84088 | -75.78836 | 40851 ft | 513 kts | 49° |
| 2026-04-30 18:49 | 37.88487 | -75.71692 | 40838 ft | 513 kts | 48° |
| 2026-04-30 18:49 | 37.92859 | -75.64578 | 40839 ft | 513 kts | 49° |
| 2026-04-30 18:50 | 37.97224 | -75.57458 | 40849 ft | 513 kts | 49° |
| 2026-04-30 18:50 | 38.01592 | -75.50320 | 40854 ft | 513 kts | 49° |
| 2026-04-30 18:51 | 38.06199 | -75.43459 | 40846 ft | 508 kts | 39° |
| 2026-04-30 18:51 | 38.11628 | -75.37698 | 40845 ft | 505 kts | 34° |
| 2026-04-30 18:52 | 38.16397 | -75.32744 | 40857 ft | 505 kts | 35° |
| 2026-04-30 18:52 | 38.22424 | -75.26455 | 40839 ft | 504 kts | 35° |
| 2026-04-30 18:53 | 38.27857 | -75.20797 | 40843 ft | 504 kts | 35° |
| 2026-04-30 18:53 | 38.33259 | -75.15158 | 40849 ft | 506 kts | 35° |
| 2026-04-30 18:54 | 38.38701 | -75.09465 | 40839 ft | 506 kts | 35° |
| 2026-04-30 18:54 | 38.44161 | -75.03740 | 40838 ft | 506 kts | 36° |
| 2026-04-30 18:55 | 38.49604 | -74.98021 | 40829 ft | 507 kts | 36° |
| 2026-04-30 18:55 | 38.57782 | -74.89406 | 40827 ft | 507 kts | 36° |
| 2026-04-30 18:56 | 38.65959 | -74.80764 | 40835 ft | 508 kts | 36° |
| 2026-04-30 18:57 | 38.74098 | -74.72134 | 40849 ft | 508 kts | 36° |
| 2026-04-30 18:57 | 38.79559 | -74.66329 | 40846 ft | 508 kts | 36° |
| 2026-04-30 18:58 | 38.87733 | -74.57619 | 40837 ft | 508 kts | 36° |
| 2026-04-30 18:59 | 38.95890 | -74.48899 | 40838 ft | 509 kts | 36° |
| 2026-04-30 19:00 | 39.06749 | -74.37249 | 40821 ft | 509 kts | 36° |
| 2026-04-30 19:01 | 39.17674 | -74.25478 | 40815 ft | 510 kts | 37° |
| 2026-04-30 19:02 | 39.25902 | -74.16581 | 40824 ft | 509 kts | 37° |
| 2026-04-30 19:03 | 39.36443 | -74.05140 | 40818 ft | 509 kts | 37° |
| 2026-04-30 19:05 | 39.57081 | -73.82610 | 40813 ft | 511 kts | 37° |
| 2026-04-30 19:06 | 39.67963 | -73.70654 | 40822 ft | 511 kts | 37° |
| 2026-04-30 19:06 | 39.76118 | -73.61660 | 40817 ft | 511 kts | 37° |
| 2026-04-30 19:07 | 39.84240 | -73.52676 | 40814 ft | 511 kts | 37° |
| 2026-04-30 19:08 | 39.95060 | -73.40665 | 40827 ft | 511 kts | 37° |
| 2026-04-30 19:09 | 40.03170 | -73.31630 | 40829 ft | 511 kts | 38° |
| 2026-04-30 19:09 | 40.08584 | -73.25584 | 40825 ft | 511 kts | 38° |
| 2026-04-30 19:10 | 40.14023 | -73.19497 | 40675 ft | 515 kts | 38° |
| 2026-04-30 19:10 | 40.18285 | -73.14654 | 39690 ft | 515 kts | 38° |
| 2026-04-30 19:11 | 40.19690 | -73.13036 | 39362 ft | 513 kts | 38° |
| 2026-04-30 19:11 | 40.26127 | -73.05609 | 37798 ft | 509 kts | 38° |
| 2026-04-30 19:11 | 40.28773 | -73.02548 | 37125 ft | 509 kts | 38° |
| 2026-04-30 19:12 | 40.31426 | -72.99475 | 36445 ft | 508 kts | 38° |
| 2026-04-30 19:12 | 40.34089 | -72.96388 | 35780 ft | 508 kts | 38° |
| 2026-04-30 19:12 | 40.36701 | -72.93356 | 35196 ft | 510 kts | 38° |
| 2026-04-30 19:13 | 40.42024 | -72.87171 | 34013 ft | 512 kts | 38° |
| 2026-04-30 19:13 | 40.47368 | -72.80946 | 32515 ft | 514 kts | 38° |
| 2026-04-30 19:13 | 40.50034 | -72.77834 | 31804 ft | 517 kts | 38° |
| 2026-04-30 19:14 | 40.52731 | -72.74683 | 31094 ft | 518 kts | 38° |
| 2026-04-30 19:14 | 40.55418 | -72.71538 | 30415 ft | 520 kts | 38° |
| 2026-04-30 19:14 | 40.58152 | -72.68336 | 29699 ft | 521 kts | 38° |
| 2026-04-30 19:14 | 40.60846 | -72.65176 | 29023 ft | 521 kts | 38° |
| 2026-04-30 19:15 | 40.63543 | -72.62007 | 28354 ft | 517 kts | 39° |
| 2026-04-30 19:15 | 40.68834 | -72.55766 | 27031 ft | 503 kts | 39° |
| 2026-04-30 19:15 | 40.71427 | -72.52696 | 26396 ft | 496 kts | 39° |
| 2026-04-30 19:16 | 40.73941 | -72.49711 | 25767 ft | 490 kts | 39° |
| 2026-04-30 19:16 | 40.76454 | -72.46719 | 25137 ft | 483 kts | 39° |
| 2026-04-30 19:16 | 40.81373 | -72.40842 | 23917 ft | 471 kts | 40° |
| 2026-04-30 19:17 | 40.83789 | -72.37945 | 23297 ft | 465 kts | 40° |
| 2026-04-30 19:17 | 40.88517 | -72.32259 | 22057 ft | 455 kts | 40° |
| 2026-04-30 19:17 | 40.90879 | -72.29408 | 21431 ft | 451 kts | 41° |
| 2026-04-30 19:18 | 40.94704 | -72.24783 | 20422 ft | 444 kts | 41° |
| 2026-04-30 19:18 | 40.97695 | -72.21157 | 19626 ft | 439 kts | 41° |
| 2026-04-30 19:18 | 40.99947 | -72.18422 | 19022 ft | 436 kts | 41° |
| 2026-04-30 19:19 | 41.02184 | -72.15700 | 18423 ft | 433 kts | 41° |
| 2026-04-30 19:19 | 41.04404 | -72.13034 | 17839 ft | 429 kts | 38° |
| 2026-04-30 19:19 | 41.09625 | -72.09666 | 16653 ft | 414 kts | 17° |
| 2026-04-30 19:20 | 41.12335 | -72.08359 | 16069 ft | 410 kts | 17° |
| 2026-04-30 19:20 | 41.15003 | -72.07074 | 15499 ft | 408 kts | 17° |
| 2026-04-30 19:20 | 41.19815 | -72.04773 | 14460 ft | 401 kts | 17° |
| 2026-04-30 19:21 | 41.19921 | -72.04723 | 14437 ft | 401 kts | 17° |
| 2026-04-30 19:21 | 41.25282 | -72.02160 | 13266 ft | 387 kts | 17° |
| 2026-04-30 19:22 | 41.30271 | -71.99820 | 12141 ft | 371 kts | 17° |
| 2026-04-30 19:22 | 41.37370 | -71.96570 | 10471 ft | 351 kts | 17° |
| 2026-04-30 19:23 | 41.44189 | -71.93498 | 8811 ft | 335 kts | 17° |
| 2026-04-30 19:24 | 41.48561 | -71.91531 | 7717 ft | 324 kts | 17° |
| 2026-04-30 19:24 | 41.50671 | -71.90581 | 7178 ft | 319 kts | 16° |
| 2026-04-30 19:24 | 41.54843 | -71.88710 | 6096 ft | 307 kts | 16° |
| 2026-04-30 19:25 | 41.60807 | -71.86063 | 4479 ft | 292 kts | 16° |
| 2026-04-30 19:26 | 41.64548 | -71.84415 | 4002 ft | 263 kts | 16° |
| 2026-04-30 19:26 | 41.67962 | -71.82893 | 4027 ft | 240 kts | 17° |
| 2026-04-30 19:26 | 41.69516 | -71.82190 | 4034 ft | 225 kts | 16° |
| 2026-04-30 19:27 | 41.72440 | -71.80862 | 3826 ft | 217 kts | 16° |
| 2026-04-30 19:27 | 41.75333 | -71.79550 | 3231 ft | 216 kts | 16° |
| 2026-04-30 19:28 | 41.76758 | -71.78899 | 3005 ft | 213 kts | 19° |
| 2026-04-30 19:28 | 41.78782 | -71.75963 | 2998 ft | 221 kts | 56° |
| 2026-04-30 19:29 | 41.80440 | -71.72417 | 3000 ft | 222 kts | 56° |
| 2026-04-30 19:29 | 41.81273 | -71.70641 | 3000 ft | 223 kts | 56° |
| 2026-04-30 19:30 | 41.82236 | -71.64845 | 3001 ft | 227 kts | 114° |
| 2026-04-30 19:30 | 41.80700 | -71.61186 | 3002 ft | 225 kts | 133° |
| 2026-04-30 19:31 | 41.78365 | -71.58662 | 2207 ft | 215 kts | 145° |
| 2026-04-30 19:31 | 41.77162 | -71.57520 | 2209 ft | 206 kts | 145° |
| 2026-04-30 19:31 | 41.74841 | -71.55334 | 2207 ft | 201 kts | 146° |
| 2026-04-30 19:32 | 41.73677 | -71.54243 | 2053 ft | 202 kts | 146° |
| 2026-04-30 19:32 | 41.72552 | -71.53186 | 2013 ft | 198 kts | 146° |
| 2026-04-30 19:32 | 41.71408 | -71.52114 | 2002 ft | 198 kts | 146° |
| 2026-04-30 19:32 | 41.70249 | -71.51028 | 2002 ft | 198 kts | 146° |
| 2026-04-30 19:33 | 41.69112 | -71.49963 | 2000 ft | 199 kts | 146° |
| 2026-04-30 19:33 | 41.67997 | -71.48918 | 1858 ft | 189 kts | 146° |
| 2026-04-30 19:33 | 41.66945 | -71.47933 | 1690 ft | 180 kts | 146° |
| 2026-04-30 19:33 | 41.65912 | -71.46969 | 1501 ft | 177 kts | 146° |
| 2026-04-30 19:34 | 41.64898 | -71.46021 | 1293 ft | 176 kts | 146° |
| 2026-04-30 19:34 | 41.63953 | -71.45136 | 1053 ft | 151 kts | 145° |
| 2026-04-30 19:34 | 41.62391 | -71.43652 | 546 ft | 128 kts | 146° |
| 2026-04-30 19:35 | 41.61666 | -71.42988 | 329 ft | 126 kts | 146° |
| 2026-04-30 19:35 | 41.60960 | -71.42338 | 117 ft | 123 kts | 145° |
| 2026-04-30 19:35 | 41.60294 | -71.41711 | 28 ft | 105 kts | 145° |
| 2026-04-30 19:35 | 41.59786 | -71.41250 | 30 ft | 51 kts | 149° |
| 2026-04-30 19:36 | 41.59595 | -71.41071 | 30 ft | 22 kts | 146° |
| 2026-04-30 19:36 | 41.59505 | -71.41090 | 32 ft | 3 kts | 237° |
| 2026-04-30 19:36 | 41.59455 | -71.41191 | 33 ft | 10 kts | 236° |
| 2026-04-30 19:37 | 41.59435 | -71.41269 | 35 ft | 6 kts | 317° |
| 2026-04-30 19:37 | 41.59444 | -71.41280 | 35 ft | 0 kts | 317° |